Time;durP1;ratioP1;P1;durP2;ratioP2;P2;SDS_P1;SDS_P2;PMS_P1;PMS_P2;Temp;Humidity;BMP_temperature;BMP_pressure;BME280_temperature;BME280_humidity;BME280_pressure;Samples;Min_cycle;Max_cycle;Signal;HPM_P1;HPM_P2
2021/05/05 00:01:02;;;;;;;5.65;3.47;;;410.00;1510.40;;;;;;5098377;28;20060;-80
2021/05/05 00:03:28;;;;;;;6.15;3.58;;;410.00;1510.40;;;;;;5098821;28;20475;-79
2021/05/05 00:05:55;;;;;;;6.55;3.90;;;409.90;1510.40;;;;;;5091784;28;20020;-78
2021/05/05 00:08:21;;;;;;;5.97;3.53;;;410.00;1510.40;;;;;;5089157;28;20873;-78
2021/05/05 00:10:47;;;;;;;7.82;4.88;;;410.00;1510.40;;;;;;5081507;28;20052;-77
2021/05/05 00:13:14;;;;;;;6.75;4.13;;;409.90;1536.00;;;;;;5084542;28;20070;-77
2021/05/05 00:15:40;;;;;;;9.52;3.75;;;410.00;1536.00;;;;;;5084836;28;20483;-77
2021/05/05 00:18:07;;;;;;;9.43;4.82;;;410.10;1536.00;;;;;;5085642;28;20032;-78
2021/05/05 00:20:33;;;;;;;9.38;5.00;;;410.10;1536.00;;;;;;5083475;28;20024;-79
2021/05/05 00:22:59;;;;;;;10.32;4.70;;;410.10;1536.00;;;;;;5092898;28;20028;-79
2021/05/05 00:25:25;;;;;;;15.15;4.30;;;410.00;1536.00;;;;;;5089046;28;20032;-77
2021/05/05 00:27:51;;;;;;;5.40;3.78;;;409.80;1561.60;;;;;;5085028;28;20028;-78
2021/05/05 00:30:18;;;;;;;6.93;4.13;;;409.70;1587.20;;;;;;5083560;28;20036;-80
2021/05/05 00:32:44;;;;;;;6.60;4.07;;;384.90;1587.20;;;;;;5092129;28;20024;-79
2021/05/05 00:35:10;;;;;;;5.80;3.30;;;409.60;1612.80;;;;;;5092385;28;20024;-81
2021/05/05 00:37:36;;;;;;;8.82;4.43;;;409.70;1587.20;;;;;;5087768;28;20391;-78
2021/05/05 00:40:03;;;;;;;4.75;3.25;;;409.70;1587.20;;;;;;5086598;28;20043;-80
2021/05/05 00:42:29;;;;;;;4.93;3.15;;;409.70;1561.60;;;;;;5072124;28;20028;-79
2021/05/05 00:45:03;;;;;;;5.15;4.22;;;409.80;1561.60;;;;;;5084715;28;20051;-79
2021/05/05 00:47:30;;;;;;;6.82;3.47;;;409.80;1561.60;;;;;;5077475;28;20391;-80
2021/05/05 00:49:57;;;;;;;7.07;3.90;;;409.80;1536.00;;;;;;5076219;28;20032;-80
2021/05/05 00:52:23;;;;;;;5.95;3.08;;;409.80;1561.60;;;;;;5081319;28;20031;-78
2021/05/05 00:54:50;;;;;;;6.72;3.40;;;409.90;1536.00;;;;;;5088040;28;20511;-77
2021/05/05 00:57:16;;;;;;;4.80;3.25;;;410.00;1536.00;;;;;;5090927;28;20039;-79
2021/05/05 00:59:42;;;;;;;5.90;3.35;;;410.00;1510.40;;;;;;5090845;28;20024;-78
2021/05/05 01:02:08;;;;;;;12.55;4.88;;;410.10;1536.00;;;;;;5083217;28;20077;-78
2021/05/05 01:04:34;;;;;;;4.65;3.80;;;410.10;1536.00;;;;;;5086472;28;20340;-79
2021/05/05 01:06:59;;;;;;;7.18;3.30;;;410.10;1510.40;;;;;;5088246;28;21073;-79
2021/05/05 01:09:27;;;;;;;5.63;3.67;;;410.10;1510.40;;;;;;5091796;28;20512;-79
2021/05/05 01:11:54;;;;;;;6.53;4.00;;;410.10;1536.00;;;;;;5085079;28;20495;-80
2021/05/05 01:14:20;;;;;;;7.40;3.92;;;410.00;1536.00;;;;;;5090013;28;20048;-80
2021/05/05 01:16:46;;;;;;;5.68;3.60;;;410.00;1536.00;;;;;;5084576;28;20476;-79
2021/05/05 01:19:12;;;;;;;9.70;3.50;;;409.90;1536.00;;;;;;5085197;28;20032;-79
2021/05/05 01:21:38;;;;;;;7.78;4.00;;;409.80;1561.60;;;;;;5090197;28;20472;-80
2021/05/05 01:24:05;;;;;;;7.70;3.80;;;409.70;1561.60;;;;;;5087135;28;20558;-81
2021/05/05 01:26:31;;;;;;;9.32;3.67;;;409.70;1587.20;;;;;;5091880;28;20055;-80
2021/05/05 01:29:00;;;;;;;9.45;4.68;;;409.60;1587.20;;;;;;5083682;28;20059;-80
2021/05/05 01:31:27;;;;;;;6.07;3.25;;;409.60;1587.20;;;;;;5074572;28;20377;-80
2021/05/05 01:33:53;;;;;;;5.00;3.53;;;384.90;1587.20;;;;;;5081371;28;20111;-80
2021/05/05 01:36:21;;;;;;;7.57;3.70;;;384.70;1587.20;;;;;;5075801;28;20036;-81
2021/05/05 01:38:48;;;;;;;7.93;3.42;;;384.70;1612.80;;;;;;5090953;28;20024;-81
2021/05/05 01:41:15;;;;;;;5.18;3.25;;;384.70;1612.80;;;;;;5090673;28;20040;-81
2021/05/05 01:43:41;;;;;;;7.53;3.20;;;384.70;1612.80;;;;;;5083009;28;20028;-80
2021/05/05 01:46:07;;;;;;;6.97;3.95;;;384.70;1612.80;;;;;;5087799;28;20020;-80
2021/05/05 01:48:33;;;;;;;7.28;4.32;;;384.50;1638.40;;;;;;5095376;28;20473;-78
2021/05/05 01:50:59;;;;;;;7.95;5.15;;;384.50;1664.00;;;;;;5082679;28;20023;-77
2021/05/05 01:53:25;;;;;;;6.35;3.95;;;384.40;1664.00;;;;;;5083277;28;20143;-78
2021/05/05 01:55:50;;;;;;;8.00;4.28;;;384.40;1664.00;;;;;;5092043;28;20043;-77
2021/05/05 01:58:17;;;;;;;10.00;4.15;;;384.40;1664.00;;;;;;5091181;28;20032;-77
2021/05/05 02:00:42;;;;;;;11.88;4.30;;;384.40;1664.00;;;;;;5091298;28;20032;-76
2021/05/05 02:03:09;;;;;;;8.95;4.13;;;384.40;1664.00;;;;;;5092430;28;20024;-76
2021/05/05 02:05:36;;;;;;;6.13;4.35;;;384.40;1664.00;;;;;;5091652;28;20036;-75
2021/05/05 02:08:02;;;;;;;5.68;3.72;;;384.40;1664.00;;;;;;5083091;28;20031;-76
2021/05/05 02:10:28;;;;;;;5.63;3.90;;;384.40;1664.00;;;;;;5093276;28;20170;-76
2021/05/05 02:12:54;;;;;;;6.93;4.35;;;384.40;1638.40;;;;;;5073738;28;20029;-77
2021/05/05 02:15:20;;;;;;;7.53;3.67;;;384.40;1664.00;;;;;;5084960;28;20027;-77
2021/05/05 02:17:55;;;;;;;9.40;4.38;;;384.50;1638.40;;;;;;5094675;28;20103;-77
2021/05/05 02:20:24;;;;;;;8.20;5.00;;;384.60;1638.40;;;;;;5078475;28;20028;-78
2021/05/05 02:22:50;;;;;;;7.00;4.10;;;384.50;1638.40;;;;;;5085573;28;20036;-79
2021/05/05 02:25:16;;;;;;;6.78;3.85;;;384.60;1638.40;;;;;;5087644;28;20507;-77
2021/05/05 02:27:43;;;;;;;6.38;4.30;;;384.60;1612.80;;;;;;5082717;28;20024;-81
2021/05/05 02:30:10;;;;;;;6.47;4.45;;;384.70;1612.80;;;;;;5092029;28;20430;-78
2021/05/05 02:32:38;;;;;;;6.15;4.63;;;384.70;1612.80;;;;;;5089569;28;20475;-78
2021/05/05 02:35:07;;;;;;;7.55;5.45;;;384.70;1612.80;;;;;;5075127;28;20023;-78
2021/05/05 02:37:33;;;;;;;6.93;4.20;;;384.80;1587.20;;;;;;5084385;28;20453;-78
2021/05/05 02:39:59;;;;;;;9.95;4.53;;;384.90;1587.20;;;;;;5089485;28;20024;-81
2021/05/05 02:42:25;;;;;;;6.40;3.85;;;384.90;1587.20;;;;;;5086416;28;20031;-80
2021/05/05 02:44:51;;;;;;;6.40;5.13;;;409.60;1612.80;;;;;;5091110;28;20551;-81
2021/05/05 02:47:20;;;;;;;6.28;3.78;;;409.60;1612.80;;;;;;5082820;28;20119;-78
2021/05/05 02:49:46;;;;;;;7.38;4.50;;;409.70;1587.20;;;;;;5079337;28;20025;-80
2021/05/05 02:52:12;;;;;;;9.60;4.93;;;409.80;1587.20;;;;;;5093734;28;20533;-79
2021/05/05 02:54:38;;;;;;;9.40;4.60;;;409.80;1587.20;;;;;;5086140;28;20024;-78
2021/05/05 02:57:05;;;;;;;9.38;5.25;;;409.80;1587.20;;;;;;5080369;28;20077;-78
2021/05/05 02:59:31;;;;;;;9.18;4.68;;;409.80;1587.20;;;;;;5086736;28;20024;-79
2021/05/05 03:01:57;;;;;;;9.13;5.30;;;409.80;1587.20;;;;;;5086776;28;20039;-79
2021/05/05 03:04:24;;;;;;;8.10;5.20;;;409.90;1587.20;;;;;;5086808;28;20749;-79
2021/05/05 03:06:50;;;;;;;6.05;4.40;;;409.90;1587.20;;;;;;5086394;28;20111;-79
2021/05/05 03:09:21;;;;;;;6.53;4.47;;;409.90;1587.20;;;;;;5084646;28;20063;-79
2021/05/05 03:11:47;;;;;;;6.30;4.35;;;410.00;1587.20;;;;;;5085058;28;20506;-78
2021/05/05 03:14:13;;;;;;;7.10;4.93;;;409.90;1587.20;;;;;;5081739;28;20099;-79
2021/05/05 03:16:40;;;;;;;11.00;5.18;;;409.90;1561.60;;;;;;5085775;28;20032;-79
2021/05/05 03:19:06;;;;;;;7.60;4.20;;;409.90;1561.60;;;;;;5086601;28;20024;-78
2021/05/05 03:21:32;;;;;;;8.20;4.60;;;409.80;1587.20;;;;;;5093588;28;20027;-78
2021/05/05 03:23:57;;;;;;;6.07;4.45;;;409.80;1587.20;;;;;;5074655;28;20028;-79
2021/05/05 03:26:23;;;;;;;9.45;4.20;;;409.60;1612.80;;;;;;5085612;28;20073;-79
2021/05/05 03:28:49;;;;;;;9.65;5.07;;;409.70;1612.80;;;;;;5079753;28;20028;-78
2021/05/05 03:31:15;;;;;;;8.02;4.70;;;409.60;1638.40;;;;;;5092201;28;20020;-78
2021/05/05 03:33:40;;;;;;;7.63;4.20;;;409.60;1612.80;;;;;;5083229;28;20025;-78
2021/05/05 03:36:06;;;;;;;6.70;5.07;;;409.60;1612.80;;;;;;5088656;28;20024;-77
2021/05/05 03:38:32;;;;;;;11.52;4.63;;;409.60;1612.80;;;;;;5092663;28;20111;-77
2021/05/05 03:40:58;;;;;;;7.15;4.25;;;409.60;1612.80;;;;;;5085286;28;20132;-76
2021/05/05 03:43:24;;;;;;;7.82;4.28;;;384.90;1587.20;;;;;;5085443;28;20523;-77
2021/05/05 03:45:50;;;;;;;9.88;4.57;;;384.90;1587.20;;;;;;5085221;28;20016;-77
2021/05/05 03:48:16;;;;;;;9.45;4.88;;;384.70;1612.80;;;;;;5075290;28;20027;-77
2021/05/05 03:50:42;;;;;;;11.48;5.25;;;384.60;1612.80;;;;;;5088870;28;20024;-76
2021/05/05 03:53:08;;;;;;;8.45;4.60;;;384.90;1638.40;;;;;;5077252;28;20485;-76
2021/05/05 03:55:33;;;;;;;9.13;5.57;;;384.60;1664.00;;;;;;5086679;28;20059;-76
2021/05/05 03:57:59;;;;;;;8.77;5.22;;;384.60;1638.40;;;;;;5085379;28;20467;-77
2021/05/05 04:00:25;;;;;;;10.65;5.07;;;384.50;1664.00;;;;;;5084891;28;20031;-76
2021/05/05 04:02:51;;;;;;;9.77;4.32;;;384.50;1664.00;;;;;;5082866;28;20036;-76
2021/05/05 04:05:16;;;;;;;8.05;3.90;;;384.40;1664.00;;;;;;5081601;28;20696;-76
2021/05/05 04:07:42;;;;;;;8.35;4.45;;;384.40;1664.00;;;;;;5077541;28;20069;-77
2021/05/05 04:10:09;;;;;;;10.50;5.85;;;384.30;1664.00;;;;;;5084810;28;20135;-77
2021/05/05 04:12:40;;;;;;;12.13;5.75;;;384.30;1689.60;;;;;;5086278;28;20481;-77
2021/05/05 04:15:06;;;;;;;8.75;5.65;;;384.20;1689.60;;;;;;5086760;28;20024;-77
2021/05/05 04:17:32;;;;;;;9.68;5.00;;;384.20;1715.20;;;;;;5069746;28;20032;-78
2021/05/05 04:19:58;;;;;;;8.07;5.13;;;384.20;1715.20;;;;;;5087139;28;20028;-76
2021/05/05 04:22:24;;;;;;;14.30;6.50;;;384.10;1715.20;;;;;;5072902;28;20035;-77
2021/05/05 04:24:51;;;;;;;11.73;6.35;;;384.20;1715.20;;;;;;5085132;28;20525;-78
2021/05/05 04:27:17;;;;;;;10.70;6.47;;;384.20;1740.80;;;;;;5074950;28;20530;-77
2021/05/05 04:29:43;;;;;;;9.70;6.60;;;384.20;1740.80;;;;;;5082457;28;20037;-77
2021/05/05 04:32:11;;;;;;;12.68;7.22;;;384.30;1715.20;;;;;;5080242;28;20175;-76
2021/05/05 04:34:37;;;;;;;15.25;7.03;;;384.30;1740.80;;;;;;5075283;28;20075;-77
2021/05/05 04:37:06;;;;;;;14.50;7.68;;;384.30;1740.80;;;;;;5086236;28;20138;-77
2021/05/05 04:39:35;;;;;;;10.85;7.40;;;384.50;1715.20;;;;;;5080939;28;20028;-77
2021/05/05 04:42:04;;;;;;;11.68;7.90;;;384.70;1715.20;;;;;;5077306;28;20066;-76
2021/05/05 04:44:30;;;;;;;12.23;7.60;;;409.60;1715.20;;;;;;5084219;28;20032;-77
2021/05/05 04:46:56;;;;;;;12.00;7.68;;;409.80;1715.20;;;;;;5075966;28;20024;-76
2021/05/05 04:49:21;;;;;;;16.90;6.90;;;410.00;1689.60;;;;;;5088470;28;20035;-75
2021/05/05 04:51:47;;;;;;;9.80;6.65;;;410.30;1664.00;;;;;;5087903;28;20044;-75
2021/05/05 04:54:13;;;;;;;10.32;6.78;;;410.50;1638.40;;;;;;5082445;28;20099;-76
2021/05/05 04:56:39;;;;;;;9.40;6.40;;;435.40;1638.40;;;;;;5085001;28;20037;-75
2021/05/05 04:59:05;;;;;;;10.75;5.75;;;435.50;1612.80;;;;;;5088152;28;20077;-75
2021/05/05 05:01:31;;;;;;;12.93;5.95;;;435.80;1587.20;;;;;;5083063;28;20027;-75
2021/05/05 05:03:57;;;;;;;13.50;5.30;;;436.00;1536.00;;;;;;5081713;28;20476;-74
2021/05/05 05:06:23;;;;;;;10.55;5.18;;;436.10;1536.00;;;;;;5085272;28;20028;-75
2021/05/05 05:08:49;;;;;;;9.55;5.13;;;461.00;1536.00;;;;;;5082138;28;20170;-75
2021/05/05 05:11:15;;;;;;;8.10;5.47;;;461.10;1510.40;;;;;;5085041;28;20133;-75
2021/05/05 05:13:41;;;;;;;9.52;5.32;;;461.40;1484.80;;;;;;5084291;28;20096;-75
2021/05/05 05:16:06;;;;;;;9.82;5.60;;;461.60;1459.20;;;;;;5085891;28;20028;-74
2021/05/05 05:18:33;;;;;;;10.07;5.82;;;486.50;1433.60;;;;;;5077156;28;20028;-75
2021/05/05 05:20:59;;;;;;;11.27;5.32;;;486.60;1408.00;;;;;;5089779;28;20033;-74
2021/05/05 05:23:25;;;;;;;10.20;5.47;;;486.60;1408.00;;;;;;5092996;28;20081;-75
2021/05/05 05:25:51;;;;;;;10.80;5.60;;;486.80;1382.40;;;;;;5086334;28;20028;-75
2021/05/05 05:28:17;;;;;;;14.32;6.35;;;486.90;1433.60;;;;;;5095960;28;20059;-74
2021/05/05 05:30:42;;;;;;;12.88;6.30;;;487.10;1433.60;;;;;;5093272;28;20043;-75
2021/05/05 05:33:08;;;;;;;9.25;5.63;;;487.20;1433.60;;;;;;5092938;28;20107;-74
2021/05/05 05:35:35;;;;;;;7.97;5.38;;;487.30;1408.00;;;;;;5093447;28;20492;-74
2021/05/05 05:38:01;;;;;;;13.93;6.43;;;487.30;1408.00;;;;;;5076731;28;20020;-77
2021/05/05 05:40:27;;;;;;;8.20;6.05;;;512.00;1382.40;;;;;;5095325;28;20527;-75
2021/05/05 05:42:53;;;;;;;9.68;5.15;;;487.20;1408.00;;;;;;5090480;28;20027;-75
2021/05/05 05:45:18;;;;;;;7.85;3.58;;;512.00;1382.40;;;;;;5092753;28;20123;-75
2021/05/05 05:47:45;;;;;;;10.15;4.30;;;512.30;1280.00;;;;;;5092060;28;20020;-75
2021/05/05 05:50:13;;;;;;;11.55;5.07;;;512.40;1254.40;;;;;;5093499;28;20030;-75
2021/05/05 05:52:40;;;;;;;8.25;4.32;;;512.50;1305.60;;;;;;5089830;28;20499;-75
2021/05/05 05:55:08;;;;;;;7.05;4.05;;;512.60;1280.00;;;;;;5091006;28;20028;-75
2021/05/05 05:57:34;;;;;;;10.05;4.10;;;537.80;1280.00;;;;;;5092107;28;20089;-75
2021/05/05 06:00:00;;;;;;;5.90;3.20;;;537.90;1228.80;;;;;;5081001;28;20423;-76
2021/05/05 06:02:25;;;;;;;8.93;4.03;;;538.00;1152.00;;;;;;5090247;28;20033;-76
2021/05/05 06:04:51;;;;;;;6.65;3.55;;;538.10;1177.60;;;;;;5084625;28;20032;-75
2021/05/05 06:07:17;;;;;;;7.72;3.45;;;538.50;1177.60;;;;;;5090016;28;20063;-76
2021/05/05 06:09:43;;;;;;;6.60;3.85;;;537.90;1203.20;;;;;;5081539;28;20068;-76
2021/05/05 06:12:09;;;;;;;6.65;2.75;;;537.90;1203.20;;;;;;5087155;28;20025;-76
2021/05/05 06:14:34;;;;;;;7.00;3.38;;;538.50;1177.60;;;;;;5090943;28;20023;-76
2021/05/05 06:17:04;;;;;;;5.78;3.33;;;563.20;1177.60;;;;;;5090324;28;20063;-76
2021/05/05 06:19:29;;;;;;;5.20;3.70;;;563.30;1203.20;;;;;;5094891;28;20016;-75
2021/05/05 06:21:55;;;;;;;4.20;3.03;;;563.30;1203.20;;;;;;5094597;28;20373;-76
2021/05/05 06:24:21;;;;;;;6.25;2.95;;;563.60;1203.20;;;;;;5092806;28;20089;-76
2021/05/05 06:26:46;;;;;;;4.35;3.03;;;563.60;1177.60;;;;;;5094665;28;20099;-77
2021/05/05 06:29:12;;;;;;;4.65;2.38;;;563.70;1177.60;;;;;;5092417;28;20363;-77
2021/05/05 06:31:38;;;;;;;5.00;3.13;;;563.50;1152.00;;;;;;5086348;28;20032;-76
2021/05/05 06:34:04;;;;;;;4.28;2.97;;;563.60;1177.60;;;;;;5084985;28;20033;-77
2021/05/05 06:36:30;;;;;;;4.03;2.72;;;563.90;1177.60;;;;;;5089630;28;20099;-76
2021/05/05 06:38:56;;;;;;;4.05;2.60;;;563.80;1126.40;;;;;;5088146;28;20673;-76
2021/05/05 06:41:22;;;;;;;5.20;2.50;;;588.80;1126.40;;;;;;5084365;28;20182;-76
2021/05/05 06:43:47;;;;;;;9.48;3.70;;;588.80;1075.20;;;;;;5094072;28;20043;-76
2021/05/05 06:46:13;;;;;;;8.25;3.75;;;564.10;1100.80;;;;;;5084041;28;20040;-76
2021/05/05 06:48:39;;;;;;;4.80;2.88;;;589.20;1075.20;;;;;;5091222;28;20107;-77
2021/05/05 06:51:05;;;;;;;3.40;2.00;;;589.00;1075.20;;;;;;5091785;28;20032;-77
2021/05/05 06:53:30;;;;;;;4.20;2.35;;;589.10;1075.20;;;;;;5091083;28;20112;-76
2021/05/05 06:55:56;;;;;;;3.60;2.53;;;588.90;1075.20;;;;;;5090145;28;20059;-77
2021/05/05 06:58:22;;;;;;;5.18;2.75;;;589.00;1049.60;;;;;;5090112;28;20039;-77
2021/05/05 07:00:48;;;;;;;4.78;2.40;;;588.90;1100.80;;;;;;5093310;28;20035;-77
2021/05/05 07:03:13;;;;;;;5.13;2.20;;;589.30;1075.20;;;;;;5092713;28;20035;-77
2021/05/05 07:05:39;;;;;;;5.82;3.03;;;589.30;1049.60;;;;;;5093090;28;20032;-78
2021/05/05 07:08:05;;;;;;;4.20;2.40;;;589.20;1049.60;;;;;;5093890;28;20574;-77
2021/05/05 07:10:31;;;;;;;6.88;2.42;;;589.10;1075.20;;;;;;5090493;28;20048;-78
2021/05/05 07:12:57;;;;;;;3.03;1.80;;;589.10;1049.60;;;;;;5092217;28;20036;-77
2021/05/05 07:15:23;;;;;;;6.65;2.25;;;614.40;998.40;;;;;;5083832;28;20035;-77
2021/05/05 07:17:48;;;;;;;4.97;2.60;;;589.70;998.40;;;;;;5093713;28;20185;-78
2021/05/05 07:20:15;;;;;;;4.80;3.10;;;614.50;972.80;;;;;;5093791;28;20473;-78
2021/05/05 07:22:41;;;;;;;4.00;2.45;;;615.00;972.80;;;;;;5083207;28;20021;-78
2021/05/05 07:25:07;;;;;;;5.05;2.83;;;615.00;972.80;;;;;;5086932;28;20035;-78
2021/05/05 07:27:33;;;;;;;5.28;2.45;;;615.00;972.80;;;;;;5079985;28;20515;-75
2021/05/05 07:29:59;;;;;;;3.83;2.28;;;615.00;972.80;;;;;;5084639;28;20032;-78
2021/05/05 07:32:25;;;;;;;5.55;3.40;;;614.60;947.20;;;;;;5086829;28;20024;-77
2021/05/05 07:34:52;;;;;;;12.60;3.47;;;614.80;921.60;;;;;;5093176;28;20062;-77
2021/05/05 07:38:06;;;;;;;6.53;2.63;;;615.30;921.60;;;;;;5082354;28;20042;-78
2021/05/05 07:48:09;;;;;;;4.22;2.42;;;640.00;947.20;;;;;;5053186;28;20029;-78
2021/05/05 07:50:35;;;;;;;4.55;2.38;;;640.40;896.00;;;;;;5051096;28;20112;-78
2021/05/05 07:53:01;;;;;;;5.47;2.90;;;640.50;921.60;;;;;;5054405;28;20108;-78
2021/05/05 07:55:28;;;;;;;6.85;3.00;;;640.20;947.20;;;;;;5047542;28;20025;-78
2021/05/05 07:57:54;;;;;;;4.15;2.85;;;640.00;972.80;;;;;;5047834;28;20119;-78
2021/05/05 08:00:20;;;;;;;4.30;2.45;;;640.00;947.20;;;;;;5058042;28;20107;-79
2021/05/05 08:02:46;;;;;;;5.22;3.20;;;640.00;947.20;;;;;;5045002;28;20044;-79
2021/05/05 08:05:12;;;;;;;4.53;2.63;;;640.20;947.20;;;;;;5045164;28;20040;-78
2021/05/05 08:07:38;;;;;;;3.35;2.30;;;640.20;921.60;;;;;;5042117;28;20056;-79
2021/05/05 08:10:07;;;;;;;6.47;2.63;;;640.20;921.60;;;;;;5051924;28;20487;-78
2021/05/05 08:12:33;;;;;;;6.18;3.08;;;640.60;921.60;;;;;;5065583;28;20029;-79
2021/05/05 08:14:59;;;;;;;7.45;2.80;;;640.70;896.00;;;;;;5040773;28;20053;-79
2021/05/05 08:17:24;;;;;;;4.40;2.60;;;665.70;896.00;;;;;;5054281;28;20527;-78
2021/05/05 08:19:50;;;;;;;5.13;2.20;;;666.20;870.40;;;;;;5051277;28;20420;-78
2021/05/05 08:22:16;;;;;;;5.03;2.53;;;665.60;844.80;;;;;;5067709;28;20040;-78
2021/05/05 08:24:42;;;;;;;4.13;2.45;;;640.80;819.20;;;;;;5086550;28;20024;-78
2021/05/05 08:27:08;;;;;;;6.18;2.88;;;666.20;819.20;;;;;;5092384;28;20055;-78
2021/05/05 08:29:35;;;;;;;4.50;2.58;;;666.50;819.20;;;;;;5084970;28;20021;-78
2021/05/05 08:32:02;;;;;;;6.95;3.30;;;691.40;819.20;;;;;;5075485;28;20016;-78
2021/05/05 08:34:28;;;;;;;6.88;2.40;;;691.30;819.20;;;;;;5084143;28;20021;-78
2021/05/05 08:36:55;;;;;;;5.60;2.83;;;691.20;793.60;;;;;;5088003;28;20653;-79
2021/05/05 08:39:21;;;;;;;6.15;2.80;;;666.50;819.20;;;;;;5092373;28;20107;-79
2021/05/05 08:41:47;;;;;;;5.70;2.80;;;691.70;768.00;;;;;;5091009;28;20816;-79
2021/05/05 08:44:15;;;;;;;5.60;2.33;;;691.40;768.00;;;;;;5092157;28;20104;-77
2021/05/05 08:46:42;;;;;;;3.80;2.70;;;691.40;768.00;;;;;;5089106;28;20114;-78
2021/05/05 08:49:09;;;;;;;4.10;2.83;;;666.20;819.20;;;;;;5090178;28;20024;-79
2021/05/05 08:51:36;;;;;;;5.90;3.03;;;691.90;768.00;;;;;;5089776;28;20031;-79
2021/05/05 08:54:07;;;;;;;9.48;2.83;;;691.40;793.60;;;;;;5085044;28;20062;-79
2021/05/05 08:56:35;;;;;;;4.43;2.85;;;716.80;768.00;;;;;;5090850;28;20111;-79
2021/05/05 08:59:10;;;;;;;7.85;2.70;;;717.00;793.60;;;;;;5086943;28;20032;-79
2021/05/05 09:01:37;;;;;;;5.78;3.03;;;716.80;768.00;;;;;;5086911;28;20097;-79
2021/05/05 09:04:04;;;;;;;3.08;2.22;;;717.00;768.00;;;;;;5081263;28;20028;-78
2021/05/05 09:06:54;;;;;;;4.38;2.47;;;691.50;768.00;;;;;;5084830;28;20032;-77
2021/05/05 09:09:34;;;;;;;5.32;2.60;;;692.00;768.00;;;;;;5089382;28;20052;-77
2021/05/05 09:12:16;;;;;;;6.35;2.65;;;692.10;742.40;;;;;;5080516;28;20040;-78
2021/05/05 09:15:00;;;;;;;7.35;2.95;;;716.80;768.00;;;;;;5084723;28;20111;-80
2021/05/05 09:17:32;;;;;;;3.67;2.33;;;691.20;768.00;;;;;;5082200;28;20032;-79
2021/05/05 09:20:06;;;;;;;3.38;2.08;;;717.10;768.00;;;;;;5087984;28;20107;-78
2021/05/05 09:22:41;;;;;;;4.88;2.88;;;717.30;742.40;;;;;;5084770;28;20107;-78
2021/05/05 09:25:10;;;;;;;4.22;2.55;;;717.20;742.40;;;;;;5082483;28;20047;-77
2021/05/05 09:27:37;;;;;;;3.85;2.33;;;717.50;742.40;;;;;;5083443;28;20027;-77
2021/05/05 09:30:18;;;;;;;6.70;2.50;;;742.90;742.40;;;;;;5079314;28;20107;-77
2021/05/05 09:32:52;;;;;;;5.22;3.00;;;742.90;742.40;;;;;;5082875;28;20384;-81
2021/05/05 09:35:19;;;;;;;4.95;2.42;;;742.60;768.00;;;;;;5079330;28;20560;-80
2021/05/05 09:37:56;;;;;;;5.15;2.40;;;717.70;742.40;;;;;;5078497;28;20025;-80
2021/05/05 09:40:23;;;;;;;4.78;3.00;;;717.70;716.80;;;;;;5081622;28;20031;-79
2021/05/05 09:42:49;;;;;;;5.20;2.58;;;742.70;742.40;;;;;;5085068;28;20032;-78
2021/05/05 09:45:15;;;;;;;6.55;2.83;;;742.90;742.40;;;;;;5085244;28;20020;-77
2021/05/05 09:47:50;;;;;;;3.00;2.42;;;742.70;742.40;;;;;;5088400;28;20384;-78
2021/05/05 09:50:25;;;;;;;4.40;2.90;;;743.20;716.80;;;;;;5091050;28;20055;-77
2021/05/05 09:52:50;;;;;;;4.93;2.77;;;768.10;716.80;;;;;;5088442;28;20032;-78
2021/05/05 09:55:19;;;;;;;8.23;3.78;;;768.30;716.80;;;;;;5084486;28;20032;-76
2021/05/05 09:57:44;;;;;;;6.65;3.20;;;793.60;716.80;;;;;;5085685;28;20028;-76
2021/05/05 10:00:15;;;;;;;3.97;2.42;;;768.90;691.20;;;;;;5089489;28;20029;-76
2021/05/05 10:02:48;;;;;;;5.25;2.78;;;768.90;665.60;;;;;;5087582;28;20039;-80
2021/05/05 10:05:17;;;;;;;5.47;2.60;;;743.20;716.80;;;;;;5086974;28;20024;-82
2021/05/05 10:08:04;;;;;;;3.67;2.80;;;716.90;768.00;;;;;;5084493;28;20025;-83
2021/05/05 10:10:31;;;;;;;6.93;3.33;;;743.00;742.40;;;;;;5091046;28;20070;-80
2021/05/05 10:13:00;;;;;;;6.07;2.58;;;742.90;742.40;;;;;;5092256;28;20123;-78
2021/05/05 10:15:27;;;;;;;6.55;3.15;;;768.30;691.20;;;;;;5093439;28;20099;-79
2021/05/05 10:17:54;;;;;;;8.77;2.83;;;768.50;716.80;;;;;;5092821;28;20040;-78
2021/05/05 10:20:23;;;;;;;6.18;3.22;;;768.60;691.20;;;;;;5089900;28;20028;-78
2021/05/05 10:22:54;;;;;;;3.40;2.60;;;768.50;691.20;;;;;;5088217;28;20146;-80
2021/05/05 10:25:20;;;;;;;4.85;2.53;;;768.60;691.20;;;;;;5086141;28;20933;-79
2021/05/05 10:27:47;;;;;;;5.32;3.42;;;768.70;691.20;;;;;;5085584;28;20470;-80
2021/05/05 10:30:15;;;;;;;4.25;2.45;;;793.70;691.20;;;;;;5084210;28;20016;-79
2021/05/05 10:32:43;;;;;;;5.25;2.70;;;794.50;665.60;;;;;;5087905;28;20504;-79
2021/05/05 10:35:13;;;;;;;9.30;2.65;;;768.80;665.60;;;;;;5083777;28;20472;-78
2021/05/05 10:37:48;;;;;;;5.85;2.75;;;794.00;665.60;;;;;;5080545;28;20021;-80
2021/05/05 10:40:15;;;;;;;4.05;2.33;;;794.40;640.00;;;;;;5099052;28;20025;-79
2021/05/05 10:42:57;;;;;;;5.65;2.72;;;794.30;640.00;;;;;;5084896;28;20508;-80
2021/05/05 10:45:35;;;;;;;3.28;2.47;;;768.90;640.00;;;;;;5089900;28;20128;-79
2021/05/05 10:48:03;;;;;;;4.75;2.28;;;794.40;665.60;;;;;;5087488;28;20123;-80
2021/05/05 10:50:29;;;;;;;3.90;2.10;;;819.80;614.40;;;;;;5085843;28;20020;-78
2021/05/05 10:52:57;;;;;;;4.95;2.72;;;819.60;640.00;;;;;;5090072;28;20145;-80
2021/05/05 10:55:36;;;;;;;4.20;2.47;;;820.10;614.40;;;;;;5089547;28;20028;-80
2021/05/05 10:58:13;;;;;;;2.58;1.88;;;845.20;640.00;;;;;;5090007;28;20028;-79
2021/05/05 11:00:43;;;;;;;4.47;2.42;;;845.50;614.40;;;;;;5089314;28;20031;-80
2021/05/05 11:03:09;;;;;;;4.75;1.98;;;819.70;588.80;;;;;;5082316;28;20115;-78
2021/05/05 11:05:37;;;;;;;3.00;2.20;;;819.70;614.40;;;;;;5085603;28;20028;-79
2021/05/05 11:08:05;;;;;;;4.97;2.20;;;819.40;640.00;;;;;;5085489;28;20123;-80
2021/05/05 11:10:35;;;;;;;4.05;2.30;;;743.20;665.60;;;;;;5092627;28;20524;-77
2021/05/05 11:13:19;;;;;;;4.35;2.13;;;716.90;716.80;;;;;;5101284;28;20036;-77
2021/05/05 11:15:45;;;;;;;8.35;3.17;;;742.90;691.20;;;;;;5087128;28;20049;-77
2021/05/05 11:18:35;;;;;;;4.40;2.67;;;768.10;691.20;;;;;;5100056;28;20136;-79
2021/05/05 11:21:02;;;;;;;4.75;2.40;;;742.90;716.80;;;;;;5099548;27;20032;-79
2021/05/05 11:23:42;;;;;;;7.00;5.65;;;768.70;665.60;;;;;;5083372;28;20599;-77
2021/05/05 11:26:17;;;;;;;6.18;2.70;;;794.30;640.00;;;;;;5085333;28;20016;-78
2021/05/05 11:28:59;;;;;;;5.03;3.15;;;794.30;665.60;;;;;;5087775;28;20024;-78
2021/05/05 11:31:45;;;;;;;4.18;2.28;;;819.20;665.60;;;;;;5097247;28;20024;-79
2021/05/05 11:34:17;;;;;;;;;;;794.30;665.60;;;;;;5041781;28;20128;-78
2021/05/05 11:37:04;;;;;;;3.60;2.17;;;819.70;640.00;;;;;;5026632;28;19909;-77
2021/05/05 11:39:33;;;;;;;4.25;2.42;;;793.80;665.60;;;;;;5030235;28;21082;-77
2021/05/05 11:42:00;;;;;;;6.25;3.47;;;794.30;665.60;;;;;;5041610;28;20061;-77
2021/05/05 11:44:39;;;;;;;6.55;3.13;;;768.60;665.60;;;;;;5040871;28;20476;-78
2021/05/05 11:47:17;;;;;;;3.08;2.17;;;768.70;665.60;;;;;;5036434;28;20033;-78
2021/05/05 11:49:49;;;;;;;2.95;2.00;;;794.30;640.00;;;;;;5039420;28;20124;-78
2021/05/05 11:52:29;;;;;;;3.70;1.80;;;845.10;614.40;;;;;;5023213;28;20461;-79
2021/05/05 11:55:16;;;;;;;5.57;2.25;;;794.30;640.00;;;;;;5043651;28;20033;-78
2021/05/05 11:57:50;;;;;;;3.38;2.00;;;794.00;691.20;;;;;;5041235;28;20056;-77
2021/05/05 12:00:29;;;;;;;2.35;1.90;;;768.50;665.60;;;;;;5025894;28;20037;-78
2021/05/05 12:02:56;;;;;;;2.80;1.98;;;768.50;665.60;;;;;;5025250;28;20045;-81
2021/05/05 12:05:25;;;;;;;4.35;2.17;;;768.70;640.00;;;;;;5024027;28;20489;-78
2021/05/05 12:08:03;;;;;;;3.67;2.30;;;794.10;665.60;;;;;;5022813;28;20043;-81
2021/05/05 12:10:58;;;;;;;6.35;2.10;;;793.80;665.60;;;;;;5054845;28;20040;-82
2021/05/05 12:13:37;;;;;;;4.35;2.35;;;819.40;665.60;;;;;;5090974;28;20097;-80
2021/05/05 12:16:18;;;;;;;2.97;1.92;;;845.20;640.00;;;;;;5089473;28;20034;-80
2021/05/05 12:18:46;;;;;;;3.95;1.92;;;819.60;640.00;;;;;;5088633;28;20107;-80
2021/05/05 12:21:15;;;;;;;2.80;1.70;;;794.30;665.60;;;;;;5085316;28;20031;-81
2021/05/05 12:23:44;;;;;;;5.57;2.75;;;768.30;665.60;;;;;;5082481;28;20025;-79
2021/05/05 12:26:26;;;;;;;4.05;3.15;;;743.10;691.20;;;;;;5093627;28;20027;-79
2021/05/05 12:28:58;;;;;;;2.70;1.83;;;793.80;665.60;;;;;;5080338;28;20012;-77
2021/05/05 12:31:26;;;;;;;4.60;2.30;;;768.80;640.00;;;;;;5085473;28;20028;-79
2021/05/05 12:33:53;;;;;;;3.97;2.78;;;793.90;640.00;;;;;;5082827;28;20391;-80